createdAt,value
2023-04-25T00:04:13.079Z,2.25
2023-04-25T00:09:36.184Z,2.90
2023-04-25T00:15:01.247Z,3.42
2023-04-25T00:20:26.320Z,3.90
2023-04-25T00:25:48.555Z,3.80
2023-04-25T00:31:11.513Z,4.05
2023-04-25T00:36:33.997Z,4.30
2023-04-25T00:41:56.993Z,3.80
2023-04-25T00:47:20.757Z,4.33
2023-04-25T00:52:45.504Z,4.15
2023-04-25T00:58:09.453Z,3.55
2023-04-25T01:03:33.132Z,3.25
2023-04-25T01:08:57.146Z,3.27
2023-04-25T01:14:19.470Z,3.40
2023-04-25T01:19:42.593Z,3.47
2023-04-25T01:25:05.729Z,3.25
2023-04-25T01:30:28.884Z,2.90
2023-04-25T01:35:51.323Z,3.25
2023-04-25T01:41:13.625Z,3.12
2023-04-25T01:46:36.755Z,3.58
2023-04-25T01:51:59.464Z,3.30
2023-04-25T01:57:21.812Z,3.58
2023-04-25T02:02:44.237Z,3.42
2023-04-25T02:08:07.082Z,3.35
2023-04-25T02:13:29.426Z,3.47
2023-04-25T02:18:53.410Z,3.08
2023-04-25T02:24:16.945Z,3.45
2023-04-25T02:29:39.212Z,3.80
2023-04-25T02:35:03.144Z,3.70
2023-04-25T02:40:25.884Z,3.15
2023-04-25T02:45:48.184Z,3.30
2023-04-25T02:51:10.535Z,3.17
2023-04-25T02:56:32.817Z,2.80
2023-04-25T03:01:55.124Z,2.70
2023-04-25T03:07:17.383Z,2.37
2023-04-25T03:12:39.678Z,2.58
2023-04-25T03:18:02.117Z,2.47
2023-04-25T03:23:24.617Z,2.58
2023-04-25T03:28:47.676Z,2.00
2023-04-25T03:34:09.916Z,2.05
2023-04-25T03:39:32.290Z,2.12
2023-04-25T03:44:54.526Z,2.10
2023-04-25T03:50:17.270Z,1.90
2023-04-25T03:55:40.773Z,2.00
2023-04-25T04:01:05.154Z,1.82
2023-04-25T04:06:37.797Z,1.93
2023-04-25T04:12:00.135Z,1.70
2023-04-25T04:17:22.943Z,1.77
2023-04-25T04:22:45.537Z,1.53
2023-04-25T04:28:08.655Z,1.40
2023-04-25T04:33:32.482Z,1.57
2023-04-25T04:38:55.223Z,2.10
2023-04-25T04:44:18.114Z,1.70
2023-04-25T04:49:41.254Z,1.50
2023-04-25T04:55:03.504Z,1.50
2023-04-25T05:00:29.120Z,1.62
2023-04-25T05:05:50.574Z,1.30
2023-04-25T05:11:13.366Z,1.30
2023-04-25T05:16:36.605Z,1.70
2023-04-25T05:21:58.911Z,1.70
2023-04-25T05:27:21.310Z,1.42
2023-04-25T05:32:43.596Z,1.47
2023-04-25T05:38:06.491Z,1.80
2023-04-25T05:43:28.754Z,1.75
2023-04-25T05:48:53.238Z,1.77
2023-04-25T05:54:16.134Z,2.10
2023-04-25T05:59:38.433Z,1.90
2023-04-25T06:05:03.660Z,2.30
2023-04-25T06:10:27.348Z,2.00
2023-04-25T06:15:50.003Z,1.90
2023-04-25T06:21:12.261Z,2.52
2023-04-25T06:26:34.519Z,2.20
2023-04-25T06:31:56.777Z,2.60
2023-04-25T06:37:19.055Z,2.05
2023-04-25T06:42:41.352Z,2.07
2023-04-25T06:48:03.637Z,2.63
2023-04-25T06:53:25.975Z,2.87
2023-04-25T06:58:48.488Z,2.70
2023-04-25T07:04:11.421Z,3.20
2023-04-25T07:09:35.288Z,2.70
2023-04-25T07:14:58.771Z,2.10
2023-04-25T07:20:22.329Z,3.45
2023-04-25T07:25:45.305Z,3.57
2023-04-25T07:31:08.347Z,2.20
2023-04-25T07:36:32.229Z,9.20
2023-04-25T07:41:55.458Z,3.13
2023-04-25T07:52:52.262Z,2.33
2023-04-25T07:58:16.099Z,2.10
2023-04-25T08:03:38.571Z,1.70
2023-04-25T08:09:01.134Z,1.77
2023-04-25T08:14:23.549Z,1.80
2023-04-25T08:19:45.821Z,2.20
2023-04-25T08:25:08.633Z,2.30
2023-04-25T08:30:31.093Z,3.27
2023-04-25T08:35:53.517Z,2.90
2023-04-25T08:41:17.846Z,4.73
2023-04-25T08:46:42.398Z,2.40
2023-04-25T08:52:12.228Z,2.58
2023-04-25T08:57:35.032Z,6.97
2023-04-25T09:02:58.416Z,2.90
2023-04-25T09:08:21.876Z,2.63
2023-04-25T09:13:45.198Z,3.20
2023-04-25T09:19:07.554Z,3.45
2023-04-25T09:24:40.831Z,2.90
2023-04-25T09:30:06.200Z,6.57
2023-04-25T09:35:32.208Z,3.03
2023-04-25T09:40:56.888Z,2.55
2023-04-25T09:46:23.049Z,3.10
2023-04-25T09:51:47.023Z,2.30
2023-04-25T09:57:19.733Z,2.92
2023-04-25T10:02:45.641Z,2.85
2023-04-25T10:08:10.458Z,2.17
2023-04-25T10:13:33.877Z,1.90
2023-04-25T10:18:56.149Z,2.20
2023-04-25T10:24:20.410Z,2.08
2023-04-25T10:29:46.939Z,2.20
2023-04-25T10:35:19.756Z,2.50
2023-04-25T10:40:42.243Z,3.00
2023-04-25T10:46:23.553Z,2.40
2023-04-25T10:51:55.454Z,2.47
2023-04-25T10:57:12.447Z,2.33
2023-04-25T11:02:37.159Z,2.20
2023-04-25T11:13:30.554Z,2.17
2023-04-25T11:14:38.063Z,2.20
2023-04-25T11:18:56.557Z,2.40
2023-04-25T11:24:21.535Z,2.60
2023-04-25T11:29:47.948Z,2.52
2023-04-25T11:35:12.411Z,2.62
2023-04-25T11:40:35.328Z,2.87
2023-04-25T11:45:59.831Z,2.30
2023-04-25T11:51:22.250Z,2.50
2023-04-25T11:56:44.490Z,2.70
2023-04-25T12:02:10.139Z,2.30
2023-04-25T12:07:34.796Z,2.65
2023-04-25T12:12:59.962Z,2.52
2023-04-25T12:18:22.941Z,2.65
2023-04-25T12:23:47.203Z,2.45
2023-04-25T12:29:10.127Z,2.30
2023-04-25T12:34:33.337Z,1.87
2023-04-25T12:39:56.666Z,2.10
2023-04-25T12:45:19.484Z,2.10
2023-04-25T12:50:43.866Z,2.10
2023-04-25T12:56:06.847Z,2.27
2023-04-25T13:01:29.414Z,2.40
2023-04-25T13:06:52.214Z,2.20
2023-04-25T13:12:14.871Z,2.40
2023-04-25T13:17:37.186Z,1.77
2023-04-25T13:23:01.026Z,2.00
2023-04-25T13:28:24.704Z,2.45
2023-04-25T13:33:47.126Z,2.60
2023-04-25T13:39:09.455Z,2.30
2023-04-25T13:44:32.660Z,1.10
2023-04-25T13:49:55.847Z,1.22
2023-04-25T13:55:18.746Z,1.52
2023-04-25T14:00:44.706Z,2.22
2023-04-25T14:06:07.717Z,2.93
2023-04-25T14:11:31.229Z,2.60
2023-04-25T14:16:55.473Z,3.25
2023-04-25T14:22:17.804Z,3.22
2023-04-25T14:27:40.058Z,2.90
2023-04-25T14:33:03.091Z,2.90
2023-04-25T14:38:27.052Z,1.90
2023-04-25T14:43:49.790Z,1.20
2023-04-25T14:49:14.749Z,1.05
2023-04-25T14:54:37.888Z,1.10
2023-04-25T15:00:01.002Z,1.20
2023-04-25T15:05:23.780Z,1.20
2023-04-25T15:10:46.846Z,1.30
2023-04-25T15:16:09.677Z,1.67
2023-04-25T15:21:32.940Z,1.80
2023-04-25T15:26:55.469Z,2.02
2023-04-25T15:32:18.689Z,2.40
2023-04-25T15:37:41.911Z,2.03
2023-04-25T15:43:05.311Z,2.77
2023-04-25T15:48:28.772Z,2.20
2023-04-25T15:53:51.956Z,1.93
2023-04-25T15:59:15.253Z,2.20
2023-04-25T16:04:38.920Z,1.90
2023-04-25T16:10:02.100Z,2.10
2023-04-25T16:15:25.499Z,2.33
2023-04-25T16:20:48.325Z,2.12
2023-04-25T16:26:10.703Z,2.43
2023-04-25T16:31:34.044Z,2.60
2023-04-25T16:36:56.757Z,3.62
2023-04-25T16:42:19.341Z,3.30
2023-04-25T16:47:42.189Z,3.55
2023-04-25T16:53:04.770Z,2.83
2023-04-25T16:58:29.377Z,3.00
2023-04-25T17:03:52.330Z,3.10
2023-04-25T17:09:15.806Z,3.30
2023-04-25T17:14:40.476Z,3.10
2023-04-25T17:20:04.583Z,3.80
2023-04-25T17:25:27.849Z,3.50
2023-04-25T17:30:50.953Z,4.55
2023-04-25T17:36:13.825Z,4.03
2023-04-25T17:41:40.860Z,4.15
2023-04-25T17:47:03.229Z,4.17
2023-04-25T17:52:26.053Z,3.40
2023-04-25T17:57:48.437Z,4.12
2023-04-25T18:03:11.587Z,3.65
2023-04-25T18:08:34.256Z,3.72
2023-04-25T18:13:56.732Z,4.08
2023-04-25T18:19:24.668Z,4.00
2023-04-25T18:24:47.001Z,4.30
2023-04-25T18:30:09.852Z,3.87
2023-04-25T18:35:32.785Z,4.22
2023-04-25T18:41:00.063Z,4.40
2023-04-25T18:46:20.709Z,4.42
2023-04-25T18:51:49.029Z,24.05
2023-04-25T18:57:13.244Z,5.17
2023-04-25T19:02:37.632Z,6.83
2023-04-25T19:08:01.608Z,6.15
2023-04-25T19:13:23.858Z,6.33
2023-04-25T19:18:46.154Z,5.65
2023-04-25T19:24:09.717Z,5.30
2023-04-25T19:29:34.390Z,4.47
2023-04-25T19:34:56.835Z,4.50
2023-04-25T19:40:22.760Z,12.13
2023-04-25T19:45:46.861Z,5.75
2023-04-25T19:51:09.445Z,4.58
2023-04-25T19:56:32.893Z,4.40
2023-04-25T20:01:56.485Z,3.98
2023-04-25T20:07:20.863Z,3.72
2023-04-25T20:12:43.237Z,3.37
2023-04-25T20:18:05.462Z,4.15
2023-04-25T20:23:28.096Z,4.00
2023-04-25T20:28:51.106Z,3.85
2023-04-25T20:34:14.067Z,4.10
2023-04-25T20:39:36.531Z,4.12
2023-04-25T20:44:58.907Z,4.85
2023-04-25T20:50:21.642Z,4.20
2023-04-25T20:55:44.520Z,3.98
2023-04-25T21:01:07.055Z,4.08
2023-04-25T21:06:29.736Z,4.00
2023-04-25T21:11:52.449Z,4.33
2023-04-25T21:17:14.755Z,4.15
2023-04-25T21:22:37.270Z,3.72
2023-04-25T21:28:00.454Z,3.65
2023-04-25T21:33:22.776Z,4.10
2023-04-25T21:38:45.053Z,5.08
2023-04-25T21:44:07.417Z,5.47
2023-04-25T21:49:29.780Z,6.17
2023-04-25T21:54:52.134Z,5.80
2023-04-25T22:00:22.318Z,7.15
2023-04-25T22:05:44.662Z,7.17
2023-04-25T22:11:07.744Z,8.35
2023-04-25T22:16:30.040Z,8.20
2023-04-25T22:21:52.393Z,8.45
2023-04-25T22:27:15.360Z,7.10
2023-04-25T22:32:38.616Z,8.18
2023-04-25T22:38:00.921Z,8.58
2023-04-25T22:43:23.250Z,10.35
2023-04-25T22:48:45.951Z,11.60
2023-04-25T22:54:08.189Z,9.93
2023-04-25T22:59:31.635Z,10.40
2023-04-25T23:04:54.146Z,9.28
2023-04-25T23:10:16.918Z,8.40
2023-04-25T23:15:40.714Z,7.58
2023-04-25T23:21:03.078Z,8.08
2023-04-25T23:26:27.408Z,6.40
2023-04-25T23:31:49.733Z,7.08
2023-04-25T23:37:12.098Z,6.50
2023-04-25T23:42:35.130Z,6.95
2023-04-25T23:47:57.404Z,6.42
2023-04-25T23:53:20.720Z,6.85
2023-04-25T23:58:42.977Z,6.50
